Main page
METAR-TAF:

METAR-TAF

Airports :

Pierre Regional Airport

Pierre, South Dakota, United States

latitude: 44-22-58N, longitude: 100-17-09W, elevation: 1742 ft

Current weather observation

The report was made 47 minutes ago, at 15:53 UTC
Wind 10 mph from the North
Temperature 61°F
Humidity 55%
Pressure 30.20 in. Hg
Visibility: 10 miles
Overcast at a height of 10000 ft

METAR: KPIR 281553Z AUTO 35009KT 10SM OVC100 16/07 A3020 RMK AO2 SLP222 T01610072

Time: 11:40 (16:40 UTC)

Forecast

The report was made 27 minutes ago, at 16:13 UTC
Forecast valid from 28 at 16 UTC to 29 at 12 UTC
Wind 12 mph from the North
Visibility: 6 miles
Overcast at a height of 10000 ft
From 28 at 1900 UTC
Wind 15 mph from the North/Northwest
Visibility: 6 miles
Scattered clouds at a height of 25000 ft
From 29 at 0200 UTC
Wind 9 mph from the North/Northwest
Visibility: 6 miles
Clear sky

TAF: KPIR 281613Z 2816/2912 35010KT P6SM OVC100 FM281900 34013KT P6SM SCT250 FM290200 34008KT P6SM SKC

Weather observations and forecasts of more than 4000 airports (METAR and TAF reports).

The available stations are represented by yellow and red dots on the map.

Hover mouse over dot to see the name of the station.

Then click to see weather observations and forecasts.

To change the map : click on the green buttons with a black cross to zoom in, on the green button with a dash to zoom out, or on the green arrows for adjacent maps.


METAR-TAF: